createdAt,value
2018-12-29T00:02:28.478Z,29.98
2018-12-29T00:04:57.059Z,30.72
2018-12-29T00:07:25.628Z,29.20
2018-12-29T00:09:54.218Z,29.45
2018-12-29T00:12:22.781Z,30.85
2018-12-29T00:14:55.020Z,29.50
2018-12-29T00:17:21.580Z,29.82
2018-12-29T00:19:50.173Z,30.65
2018-12-29T00:22:18.732Z,31.33
2018-12-29T00:24:47.329Z,30.32
2018-12-29T00:27:15.892Z,31.60
2018-12-29T00:29:44.490Z,31.10
2018-12-29T00:32:13.053Z,30.95
2018-12-29T00:34:41.618Z,31.27
2018-12-29T00:37:10.227Z,30.37
2018-12-29T00:39:38.779Z,31.70
2018-12-29T00:42:07.374Z,30.62
2018-12-29T00:44:35.940Z,31.05
2018-12-29T00:47:04.537Z,31.97
2018-12-29T00:49:33.108Z,31.50
2018-12-29T00:52:01.701Z,29.98
2018-12-29T00:54:30.259Z,29.07
2018-12-29T00:56:58.854Z,28.65
2018-12-29T00:59:27.416Z,28.75
2018-12-29T01:01:56.020Z,30.25
2018-12-29T01:04:24.578Z,29.15
2018-12-29T01:06:53.169Z,29.75
2018-12-29T01:09:21.744Z,27.95
2018-12-29T01:11:50.337Z,28.50
2018-12-29T01:14:18.907Z,27.60
2018-12-29T01:16:47.500Z,30.90
2018-12-29T01:19:16.060Z,30.10
2018-12-29T01:21:44.653Z,28.50
2018-12-29T01:24:13.221Z,29.60
2018-12-29T01:26:41.821Z,28.60
2018-12-29T01:29:10.386Z,28.87
2018-12-29T01:31:38.985Z,29.67
2018-12-29T01:34:07.549Z,30.68
2018-12-29T01:36:36.144Z,31.68
2018-12-29T01:39:06.140Z,30.72
2018-12-29T01:41:34.728Z,30.57
2018-12-29T01:44:03.292Z,29.57
2018-12-29T01:46:31.885Z,31.65
2018-12-29T01:49:00.453Z,29.37
2018-12-29T01:51:29.050Z,28.30
2018-12-29T01:53:57.611Z,29.40
2018-12-29T01:56:26.201Z,30.05
2018-12-29T01:58:54.800Z,29.23
2018-12-29T02:01:23.362Z,27.93
2018-12-29T02:03:51.953Z,27.70
2018-12-29T02:06:20.516Z,27.27
2018-12-29T02:08:49.113Z,28.85
2018-12-29T02:11:17.670Z,28.23
2018-12-29T02:13:46.255Z,27.70
2018-12-29T02:16:14.887Z,27.85
2018-12-29T02:18:43.478Z,27.98
2018-12-29T02:21:12.052Z,28.35
2018-12-29T02:23:40.645Z,28.20
2018-12-29T02:26:09.208Z,28.25
2018-12-29T02:28:37.880Z,28.15
2018-12-29T02:31:06.449Z,28.17
2018-12-29T02:33:35.043Z,28.92
2018-12-29T02:36:03.606Z,28.02
2018-12-29T02:38:32.196Z,28.02
2018-12-29T02:41:00.769Z,26.37
2018-12-29T02:43:29.366Z,28.20
2018-12-29T02:45:57.942Z,27.20
2018-12-29T02:48:26.589Z,25.60
2018-12-29T02:50:55.156Z,26.68
2018-12-29T02:53:23.758Z,26.62
2018-12-29T02:55:52.316Z,27.98
2018-12-29T02:58:20.880Z,27.15
2018-12-29T03:00:49.476Z,28.40
2018-12-29T03:03:18.046Z,26.85
2018-12-29T03:05:46.634Z,28.23
2018-12-29T03:08:15.197Z,27.52
2018-12-29T03:10:43.792Z,28.35
2018-12-29T03:13:12.354Z,29.35
2018-12-29T03:15:41.995Z,29.23
2018-12-29T03:18:10.625Z,29.87
2018-12-29T03:20:39.210Z,28.55
2018-12-29T03:23:07.788Z,29.05
2018-12-29T03:25:36.369Z,29.23
2018-12-29T03:28:04.931Z,31.73
2018-12-29T03:30:33.529Z,30.90
2018-12-29T03:33:02.103Z,30.75
2018-12-29T03:35:30.693Z,32.60
2018-12-29T03:37:59.248Z,31.57
2018-12-29T03:40:27.836Z,31.90
2018-12-29T03:42:56.468Z,32.28
2018-12-29T03:45:25.068Z,31.37
2018-12-29T03:47:53.628Z,31.77
2018-12-29T03:50:22.221Z,32.42
2018-12-29T03:52:51.029Z,32.73
2018-12-29T03:55:19.616Z,33.38
2018-12-29T03:57:48.196Z,32.25
2018-12-29T04:00:16.789Z,35.55
2018-12-29T04:02:45.368Z,33.70
2018-12-29T04:05:13.949Z,33.02
2018-12-29T04:07:42.508Z,33.65
2018-12-29T04:10:14.016Z,32.67
2018-12-29T04:12:44.314Z,33.02
2018-12-29T04:15:12.977Z,33.63
2018-12-29T04:17:41.539Z,34.38
2018-12-29T04:20:10.113Z,35.08
2018-12-29T04:22:38.717Z,34.30
2018-12-29T04:25:07.276Z,35.05
2018-12-29T04:27:35.874Z,33.38
2018-12-29T04:30:04.867Z,33.65
2018-12-29T04:32:33.464Z,34.92
2018-12-29T04:35:02.035Z,34.25
2018-12-29T04:37:30.622Z,36.35
2018-12-29T04:39:59.187Z,34.80
2018-12-29T04:42:27.781Z,37.75
2018-12-29T04:44:56.336Z,35.52
2018-12-29T04:47:24.933Z,36.17
2018-12-29T04:49:53.492Z,35.03
2018-12-29T04:52:22.084Z,35.25
2018-12-29T04:54:50.647Z,35.38
2018-12-29T04:57:19.248Z,34.63
2018-12-29T04:59:47.808Z,35.03
2018-12-29T05:02:16.424Z,33.38
2018-12-29T05:04:45.065Z,33.63
2018-12-29T05:07:13.583Z,32.67
2018-12-29T05:09:42.140Z,32.98
2018-12-29T05:12:10.736Z,31.37
2018-12-29T05:14:39.305Z,32.65
2018-12-29T05:17:07.896Z,33.65
2018-12-29T05:19:36.529Z,34.03
2018-12-29T05:22:05.123Z,32.10
2018-12-29T05:24:33.754Z,32.60
2018-12-29T05:27:02.347Z,33.28
2018-12-29T05:29:30.917Z,33.15
2018-12-29T05:31:59.512Z,32.28
2018-12-29T05:34:28.076Z,32.45
2018-12-29T05:36:56.714Z,31.90
2018-12-29T05:39:25.305Z,32.78
2018-12-29T05:41:53.874Z,30.82
2018-12-29T05:44:22.464Z,33.08
2018-12-29T05:46:51.028Z,30.15
2018-12-29T05:49:19.623Z,32.13
2018-12-29T05:51:48.200Z,30.90
2018-12-29T05:54:16.792Z,32.05
2018-12-29T05:56:45.355Z,31.97
2018-12-29T05:59:13.944Z,30.72
2018-12-29T06:01:42.512Z,32.23
2018-12-29T06:04:11.097Z,30.62
2018-12-29T06:06:39.668Z,31.35
2018-12-29T06:09:08.261Z,32.13
2018-12-29T06:11:36.829Z,30.08
2018-12-29T06:14:05.418Z,31.37
2018-12-29T06:16:33.989Z,28.95
2018-12-29T06:19:02.583Z,29.52
2018-12-29T06:21:31.141Z,31.07
2018-12-29T06:23:59.739Z,31.02
2018-12-29T06:26:28.302Z,29.60
2018-12-29T06:28:56.904Z,30.60
2018-12-29T06:31:25.477Z,29.57
2018-12-29T06:33:54.074Z,29.90
2018-12-29T06:36:22.638Z,32.13
2018-12-29T06:38:51.200Z,30.52
2018-12-29T06:41:19.792Z,28.57
2018-12-29T06:43:48.358Z,30.60
2018-12-29T06:46:16.952Z,27.40
2018-12-29T06:48:45.521Z,31.52
2018-12-29T06:51:14.115Z,30.17
2018-12-29T06:53:42.685Z,28.47
2018-12-29T06:56:11.276Z,29.80
2018-12-29T06:58:39.849Z,30.23
2018-12-29T07:01:08.457Z,30.55
2018-12-29T07:03:37.019Z,28.95
2018-12-29T07:06:05.614Z,31.00
2018-12-29T07:08:34.246Z,28.60
2018-12-29T07:11:02.844Z,28.07
2018-12-29T07:13:31.417Z,29.50
2018-12-29T07:16:00.005Z,27.55
2018-12-29T07:18:28.568Z,27.73
2018-12-29T07:20:57.169Z,30.10
2018-12-29T07:23:25.736Z,28.38
2018-12-29T07:25:54.327Z,28.35
2018-12-29T07:28:22.895Z,28.98
2018-12-29T07:30:51.485Z,27.40
2018-12-29T07:33:20.046Z,27.17
2018-12-29T07:35:48.640Z,27.67
2018-12-29T07:38:17.204Z,28.02
2018-12-29T07:40:45.806Z,26.87
2018-12-29T07:43:14.382Z,28.75
2018-12-29T07:45:42.946Z,26.55
2018-12-29T07:48:11.561Z,27.15
2018-12-29T07:50:40.129Z,26.02
2018-12-29T07:53:08.723Z,26.60
2018-12-29T07:55:37.291Z,25.88
2018-12-29T07:58:05.892Z,26.62
2018-12-29T08:00:34.461Z,27.02
2018-12-29T08:03:03.056Z,27.75
2018-12-29T08:05:32.454Z,25.80
2018-12-29T08:08:01.105Z,25.55
2018-12-29T08:10:29.669Z,25.80
2018-12-29T08:12:58.270Z,25.82
2018-12-29T08:15:26.832Z,24.77
2018-12-29T08:17:55.438Z,26.52
2018-12-29T08:20:23.992Z,25.08
2018-12-29T08:22:52.588Z,26.55
2018-12-29T08:25:21.153Z,25.17
2018-12-29T08:27:49.749Z,25.80
2018-12-29T08:30:18.321Z,26.57
2018-12-29T08:32:46.920Z,24.92
2018-12-29T08:35:15.481Z,26.03
2018-12-29T08:37:44.084Z,25.00
2018-12-29T08:40:12.653Z,27.20
2018-12-29T08:42:41.247Z,25.23
2018-12-29T08:45:09.875Z,25.57
2018-12-29T08:47:38.475Z,25.30
2018-12-29T08:50:13.041Z,25.27
2018-12-29T08:52:37.509Z,24.32
2018-12-29T08:55:06.148Z,25.55
2018-12-29T08:57:34.732Z,23.93
2018-12-29T09:00:04.035Z,23.87
2018-12-29T09:02:32.655Z,23.32
2018-12-29T09:05:01.224Z,25.75
2018-12-29T09:07:29.819Z,24.72
2018-12-29T09:09:58.536Z,25.27
2018-12-29T09:12:27.140Z,24.27
2018-12-29T09:14:55.703Z,23.70
2018-12-29T09:17:24.261Z,24.40
2018-12-29T09:19:52.858Z,23.33
2018-12-29T09:22:21.417Z,24.30
2018-12-29T09:24:50.004Z,24.47
2018-12-29T09:27:18.580Z,24.20
2018-12-29T09:29:47.179Z,23.05
2018-12-29T09:32:15.745Z,25.27
2018-12-29T09:34:44.333Z,24.60
2018-12-29T09:37:12.890Z,26.47
2018-12-29T09:39:41.476Z,25.83
2018-12-29T09:42:10.047Z,24.10
2018-12-29T09:44:38.634Z,24.33
2018-12-29T09:47:07.188Z,25.63
2018-12-29T09:49:35.854Z,26.13
2018-12-29T09:52:04.344Z,24.00
2018-12-29T09:54:32.940Z,23.50
2018-12-29T09:57:01.491Z,25.33
2018-12-29T09:59:30.085Z,24.37
2018-12-29T10:01:58.646Z,25.85
2018-12-29T10:04:27.236Z,24.43
2018-12-29T10:06:55.800Z,24.57
2018-12-29T10:09:24.413Z,24.87
2018-12-29T10:11:52.951Z,23.73
2018-12-29T10:14:21.536Z,24.70
2018-12-29T10:16:50.092Z,25.60
2018-12-29T10:19:18.680Z,26.47
2018-12-29T10:21:47.242Z,24.73
2018-12-29T10:24:15.833Z,25.23
2018-12-29T10:26:44.394Z,24.07
2018-12-29T10:29:12.952Z,24.97
2018-12-29T10:31:41.548Z,25.13
2018-12-29T10:34:10.113Z,24.83
2018-12-29T10:36:38.701Z,25.90
2018-12-29T10:39:07.262Z,23.60
2018-12-29T10:41:35.856Z,23.97
2018-12-29T10:44:04.485Z,23.57
2018-12-29T10:46:33.083Z,23.83
2018-12-29T10:49:01.629Z,24.27
2018-12-29T10:51:30.218Z,23.67
2018-12-29T10:53:58.773Z,23.03
2018-12-29T10:56:27.368Z,23.57
2018-12-29T10:58:55.931Z,24.20
2018-12-29T11:01:24.522Z,24.23
2018-12-29T11:03:53.086Z,24.43
2018-12-29T11:06:21.685Z,24.77
2018-12-29T11:08:50.239Z,24.00
2018-12-29T11:11:18.843Z,24.57
2018-12-29T11:13:47.395Z,23.37
2018-12-29T11:16:17.232Z,27.50
2018-12-29T11:18:45.793Z,25.37
2018-12-29T11:21:14.382Z,24.30
2018-12-29T11:23:42.943Z,25.07
2018-12-29T11:26:11.532Z,25.00
2018-12-29T11:28:40.961Z,24.77
2018-12-29T11:31:09.553Z,27.47
2018-12-29T11:33:38.112Z,26.00
2018-12-29T11:36:06.704Z,28.80
2018-12-29T11:38:35.269Z,25.63
2018-12-29T11:41:03.841Z,24.03
2018-12-29T11:43:32.433Z,23.33
2018-12-29T11:46:00.992Z,25.43
2018-12-29T11:48:29.592Z,24.27
2018-12-29T11:50:58.154Z,24.90
2018-12-29T11:53:27.102Z,24.47
2018-12-29T11:55:55.660Z,24.50
2018-12-29T11:58:24.246Z,24.73
2018-12-29T12:00:52.829Z,25.53
2018-12-29T12:03:21.413Z,26.07
2018-12-29T12:05:50.345Z,24.47
2018-12-29T12:08:19.001Z,24.90
2018-12-29T12:10:47.565Z,25.23
2018-12-29T12:13:16.153Z,24.57
2018-12-29T12:15:44.712Z,26.73
2018-12-29T12:18:13.603Z,26.73
2018-12-29T12:20:42.160Z,24.67
2018-12-29T12:23:10.752Z,26.00
2018-12-29T12:25:39.312Z,25.53
2018-12-29T12:28:08.201Z,24.83
2018-12-29T12:30:36.759Z,26.30
2018-12-29T12:33:05.354Z,25.73
2018-12-29T12:35:33.912Z,24.90
2018-12-29T12:38:02.733Z,23.93
2018-12-29T12:40:31.297Z,25.43
2018-12-29T12:42:59.877Z,24.60
2018-12-29T12:45:28.436Z,25.10
2018-12-29T12:47:57.016Z,26.53
2018-12-29T12:50:25.571Z,24.70
2018-12-29T12:52:54.173Z,25.47
2018-12-29T12:55:22.732Z,24.50
2018-12-29T12:57:51.336Z,26.23
2018-12-29T13:00:20.200Z,26.57
2018-12-29T13:02:48.760Z,25.90
2018-12-29T13:05:17.352Z,26.43
2018-12-29T13:07:45.908Z,27.90
2018-12-29T13:10:14.497Z,28.00
2018-12-29T13:12:43.059Z,25.77
2018-12-29T13:15:11.721Z,27.73
2018-12-29T13:17:40.278Z,26.47
2018-12-29T13:20:08.865Z,24.97
2018-12-29T13:22:37.432Z,26.63
2018-12-29T13:25:06.161Z,24.87
2018-12-29T13:27:34.721Z,24.43
2018-12-29T13:30:04.061Z,25.53
2018-12-29T13:32:32.623Z,25.93
2018-12-29T13:35:01.233Z,25.63
2018-12-29T13:37:29.787Z,29.10
2018-12-29T13:39:58.376Z,24.93
2018-12-29T13:42:26.944Z,25.17
2018-12-29T13:44:55.528Z,25.97
2018-12-29T13:47:24.108Z,27.30
2018-12-29T13:49:52.693Z,27.07
2018-12-29T13:52:21.263Z,28.00
2018-12-29T13:54:49.848Z,26.70
2018-12-29T13:57:18.409Z,28.00
2018-12-29T13:59:47.221Z,28.33
2018-12-29T14:02:15.798Z,29.17
2018-12-29T14:04:44.336Z,30.10
2018-12-29T14:07:12.932Z,29.87
2018-12-29T14:09:41.499Z,30.13
2018-12-29T14:12:10.381Z,31.10
2018-12-29T14:14:38.941Z,30.80
2018-12-29T14:17:07.533Z,30.50
2018-12-29T14:19:36.093Z,31.67
2018-12-29T14:22:04.683Z,31.13
2018-12-29T14:24:33.341Z,31.47
2018-12-29T14:27:01.932Z,32.37
2018-12-29T14:29:30.499Z,31.50
2018-12-29T14:31:59.086Z,31.27
2018-12-29T14:34:27.651Z,32.70
2018-12-29T14:36:56.541Z,31.37
2018-12-29T14:39:25.103Z,31.70
2018-12-29T14:41:53.699Z,31.83
2018-12-29T14:44:22.529Z,29.47
2018-12-29T14:46:51.119Z,29.60
2018-12-29T14:49:19.683Z,29.67
2018-12-29T14:51:48.263Z,31.33
2018-12-29T14:54:16.837Z,30.83
2018-12-29T14:56:45.425Z,31.37
2018-12-29T14:59:13.988Z,30.53
2018-12-29T15:01:42.581Z,32.63
2018-12-29T15:04:11.131Z,31.03
2018-12-29T15:06:39.727Z,30.93
2018-12-29T15:09:08.284Z,31.47
2018-12-29T15:11:36.912Z,31.17
2018-12-29T15:14:05.453Z,31.30
2018-12-29T15:16:34.250Z,29.40
2018-12-29T15:19:02.809Z,29.17
2018-12-29T15:21:31.712Z,27.27
2018-12-29T15:24:00.272Z,28.43
2018-12-29T15:26:28.833Z,26.97
2018-12-29T15:28:57.427Z,26.20
2018-12-29T15:31:26.000Z,26.73
2018-12-29T15:33:54.589Z,26.03
2018-12-29T15:36:23.456Z,27.23
2018-12-29T15:38:52.053Z,26.73
2018-12-29T15:41:20.865Z,28.03
2018-12-29T15:43:49.752Z,27.80
2018-12-29T15:46:18.323Z,28.43
2018-12-29T15:48:51.084Z,26.93
2018-12-29T15:51:17.130Z,26.43
2018-12-29T15:53:45.701Z,28.03
2018-12-29T15:56:14.567Z,26.87
2018-12-29T15:58:43.152Z,27.73
2018-12-29T16:01:12.020Z,26.37
2018-12-29T16:03:40.620Z,27.07
2018-12-29T16:06:09.179Z,27.47
2018-12-29T16:08:37.764Z,26.97
2018-12-29T16:11:06.328Z,27.27
2018-12-29T16:13:35.215Z,26.93
2018-12-29T16:16:03.778Z,27.60
2018-12-29T16:18:32.364Z,26.93
2018-12-29T16:21:01.000Z,26.00
2018-12-29T16:23:29.593Z,27.27
2018-12-29T16:25:58.160Z,28.83
2018-12-29T16:28:26.767Z,27.37
2018-12-29T16:30:55.318Z,27.27
2018-12-29T16:33:23.909Z,25.27
2018-12-29T16:35:52.668Z,25.83
2018-12-29T16:38:21.293Z,25.53
2018-12-29T16:40:57.552Z,26.47
2018-12-29T16:43:20.060Z,23.20
2018-12-29T16:45:48.653Z,24.93
2018-12-29T16:48:17.214Z,25.97
2018-12-29T16:50:45.812Z,24.43
2018-12-29T16:53:14.376Z,22.97
2018-12-29T16:55:42.969Z,23.97
2018-12-29T16:58:11.528Z,23.23
2018-12-29T17:00:40.113Z,22.60
2018-12-29T17:03:08.680Z,23.20
2018-12-29T17:05:37.269Z,23.40
2018-12-29T17:08:05.832Z,24.63
2018-12-29T17:10:34.433Z,22.77
2018-12-29T17:13:03.012Z,23.67
2018-12-29T17:15:31.656Z,24.90
2018-12-29T17:18:00.511Z,28.47
2018-12-29T17:20:29.105Z,28.93
2018-12-29T17:22:57.669Z,25.17
2018-12-29T17:25:26.254Z,23.60
2018-12-29T17:27:54.813Z,21.90
2018-12-29T17:30:23.397Z,21.97
2018-12-29T17:32:51.961Z,23.00
2018-12-29T17:35:20.857Z,22.20
2018-12-29T17:37:49.413Z,22.20
2018-12-29T17:40:18.012Z,23.63
2018-12-29T17:42:46.575Z,22.47
2018-12-29T17:45:15.269Z,23.57
2018-12-29T17:47:43.818Z,23.17
2018-12-29T17:50:12.380Z,25.37
2018-12-29T17:52:41.059Z,23.27
2018-12-29T17:55:09.923Z,21.57
2018-12-29T17:57:38.521Z,22.73
2018-12-29T18:00:07.744Z,21.90
2018-12-29T18:02:36.344Z,22.27
2018-12-29T18:05:05.235Z,23.53
2018-12-29T18:07:33.835Z,22.00
2018-12-29T18:10:02.400Z,22.53
2018-12-29T18:12:30.993Z,22.67
2018-12-29T18:14:59.620Z,23.43
2018-12-29T18:17:28.220Z,22.23
2018-12-29T18:19:56.778Z,22.13
2018-12-29T18:22:25.425Z,22.10
2018-12-29T18:24:54.550Z,21.07
2018-12-29T18:27:23.138Z,21.67
2018-12-29T18:29:51.704Z,21.60
2018-12-29T18:32:20.472Z,21.10
2018-12-29T18:34:49.030Z,21.60
2018-12-29T18:37:17.944Z,21.47
2018-12-29T18:39:46.545Z,20.90
2018-12-29T18:42:15.107Z,21.00
2018-12-29T18:44:43.685Z,20.50
2018-12-29T18:47:12.534Z,19.70
2018-12-29T18:49:41.136Z,19.17
2018-12-29T18:52:10.590Z,19.23
2018-12-29T18:54:39.152Z,25.27
2018-12-29T18:57:07.747Z,20.30
2018-12-29T18:59:36.308Z,21.87
2018-12-29T19:02:04.964Z,21.47
2018-12-29T19:04:33.828Z,22.70
2018-12-29T19:07:02.453Z,21.73
2018-12-29T19:09:31.016Z,22.30
2018-12-29T19:11:59.588Z,20.40
2018-12-29T19:14:28.177Z,20.27
2018-12-29T19:16:56.751Z,20.10
2018-12-29T19:19:25.637Z,18.97
2018-12-29T19:21:54.201Z,19.20
2018-12-29T19:24:22.808Z,19.00
2018-12-29T19:26:51.373Z,19.53
2018-12-29T19:29:19.959Z,19.13
2018-12-29T19:31:48.520Z,19.33
2018-12-29T19:34:17.313Z,17.63
2018-12-29T19:36:45.867Z,21.13
2018-12-29T19:39:14.755Z,17.87
2018-12-29T19:41:48.069Z,16.43
2018-12-29T19:44:13.548Z,16.77
2018-12-29T19:46:42.408Z,17.27
2018-12-29T19:49:11.204Z,16.73
2018-12-29T19:51:39.769Z,17.87
2018-12-29T19:54:08.364Z,16.87
2018-12-29T19:56:37.025Z,15.53
2018-12-29T19:59:06.012Z,15.20
2018-12-29T20:01:34.580Z,15.57
2018-12-29T20:04:03.464Z,14.70
2018-12-29T20:06:32.042Z,14.63
2018-12-29T20:09:00.699Z,15.50
2018-12-29T20:11:29.260Z,15.77
2018-12-29T20:13:57.896Z,15.20
2018-12-29T20:16:26.753Z,15.17
2018-12-29T20:18:55.318Z,15.60
2018-12-29T20:21:23.943Z,14.73
2018-12-29T20:23:52.521Z,15.03
2018-12-29T20:26:21.117Z,14.77
2018-12-29T20:28:49.673Z,16.23
2018-12-29T20:31:18.259Z,16.70
2018-12-29T20:33:46.825Z,15.30
2018-12-29T20:36:15.425Z,15.10
2018-12-29T20:38:43.972Z,15.40
2018-12-29T20:41:12.610Z,15.80
2018-12-29T20:43:41.140Z,15.37
2018-12-29T20:46:09.747Z,15.83
2018-12-29T20:48:38.296Z,14.47
2018-12-29T20:51:06.887Z,15.33
2018-12-29T20:53:35.464Z,14.53
2018-12-29T20:56:06.237Z,14.07
2018-12-29T20:58:34.797Z,14.33
2018-12-29T21:01:03.389Z,13.97
2018-12-29T21:03:31.956Z,13.63
2018-12-29T21:06:00.552Z,13.23
2018-12-29T21:08:29.109Z,12.83
2018-12-29T21:10:57.710Z,13.57
2018-12-29T21:13:26.271Z,13.43
2018-12-29T21:15:54.863Z,14.67
2018-12-29T21:18:23.420Z,14.03
2018-12-29T21:20:51.996Z,13.60
2018-12-29T21:23:20.820Z,14.13
2018-12-29T21:25:49.369Z,13.57
2018-12-29T21:28:17.955Z,13.47
2018-12-29T21:30:46.508Z,14.73
2018-12-29T21:33:15.102Z,14.73
2018-12-29T21:35:43.656Z,14.57
2018-12-29T21:38:12.249Z,14.67
2018-12-29T21:40:40.831Z,13.93
2018-12-29T21:43:09.409Z,13.10
2018-12-29T21:45:37.968Z,13.73
2018-12-29T21:48:06.560Z,15.73
2018-12-29T21:50:35.320Z,13.43
2018-12-29T21:53:03.985Z,12.87
2018-12-29T21:55:32.540Z,14.90
2018-12-29T21:58:01.128Z,13.93
2018-12-29T22:00:29.693Z,14.03
2018-12-29T22:02:58.285Z,13.80
2018-12-29T22:05:27.014Z,14.53
2018-12-29T22:07:55.600Z,14.20
2018-12-29T22:10:24.160Z,14.63
2018-12-29T22:12:52.752Z,14.63
2018-12-29T22:15:21.311Z,14.33
2018-12-29T22:17:49.913Z,15.87
2018-12-29T22:20:18.476Z,15.57
2018-12-29T22:22:47.068Z,14.70
2018-12-29T22:25:15.628Z,15.67
2018-12-29T22:27:44.480Z,16.03
2018-12-29T22:30:13.040Z,15.97
2018-12-29T22:32:41.807Z,15.97
2018-12-29T22:35:10.400Z,16.03
2018-12-29T22:37:38.956Z,15.70
2018-12-29T22:40:07.548Z,15.87
2018-12-29T22:42:36.121Z,16.20
2018-12-29T22:45:05.746Z,15.50
2018-12-29T22:47:34.312Z,15.73
2018-12-29T22:50:02.896Z,15.80
2018-12-29T22:52:31.456Z,16.40
2018-12-29T22:55:00.087Z,16.33
2018-12-29T22:57:28.709Z,17.43
2018-12-29T22:59:57.348Z,15.73
2018-12-29T23:02:26.028Z,17.27
2018-12-29T23:04:54.626Z,15.83
2018-12-29T23:07:23.379Z,16.87
2018-12-29T23:09:51.964Z,16.60
2018-12-29T23:12:20.525Z,16.13
2018-12-29T23:14:49.130Z,15.80
2018-12-29T23:17:17.695Z,18.27
2018-12-29T23:19:46.288Z,16.67
2018-12-29T23:22:14.848Z,16.90
2018-12-29T23:24:43.443Z,17.40
2018-12-29T23:27:12.004Z,17.13
2018-12-29T23:29:40.593Z,18.27
2018-12-29T23:32:09.158Z,17.40
2018-12-29T23:34:38.032Z,16.47
2018-12-29T23:37:06.621Z,18.47
2018-12-29T23:39:35.179Z,17.97
2018-12-29T23:42:03.767Z,17.43
2018-12-29T23:44:32.330Z,17.70
2018-12-29T23:47:00.991Z,17.03
2018-12-29T23:49:29.748Z,18.17
2018-12-29T23:51:58.639Z,17.57
2018-12-29T23:54:27.200Z,18.47
2018-12-29T23:56:56.089Z,18.17
2018-12-29T23:59:24.648Z,18.30
